Time;durP1;ratioP1;P1;durP2;ratioP2;P2;SDS_P1;SDS_P2;PMS_P1;PMS_P2;Temp;Humidity;BMP_temperature;BMP_pressure;BME280_temperature;BME280_humidity;BME280_pressure;Samples;Min_cycle;Max_cycle;Signal;HPM_P1;HPM_P2
2022/03/13 00:00:11;;;;;;;8.13;2.90;;;;;;;;;;4970017;28;20395;-89
2022/03/13 00:02:37;;;;;;;6.20;3.15;;;;;;;;;;4969821;28;20034;-92
2022/03/13 00:05:06;;;;;;;7.00;3.33;;;;;;;;;;4971081;28;20077;-91
2022/03/13 00:07:34;;;;;;;5.43;3.10;;;;;;;;;;4974132;28;20553;-89
2022/03/13 00:10:00;;;;;;;7.13;2.93;;;;;;;;;;4981746;28;20030;-91
2022/03/13 00:12:28;;;;;;;6.03;2.80;;;;;;;;;;4993482;28;20027;-92
2022/03/13 00:14:58;;;;;;;8.53;3.10;;;;;;;;;;4994111;28;20418;-92
2022/03/13 00:17:30;;;;;;;6.97;2.90;;;;;;;;;;4994400;28;20046;-90
2022/03/13 00:20:00;;;;;;;10.57;3.10;;;;;;;;;;4992926;28;20033;-91
2022/03/13 00:22:27;;;;;;;8.05;3.25;;;;;;;;;;4994051;28;20027;-92
2022/03/13 00:24:53;;;;;;;5.05;2.90;;;;;;;;;;4994232;28;20037;-92
2022/03/13 00:27:20;;;;;;;6.32;2.92;;;;;;;;;;4992526;28;20104;-91
2022/03/13 00:29:46;;;;;;;4.95;2.90;;;;;;;;;;4993067;28;20072;-88
2022/03/13 00:32:12;;;;;;;3.35;2.60;;;;;;;;;;4992927;28;20030;-89
2022/03/13 00:34:39;;;;;;;5.75;3.15;;;;;;;;;;4993865;28;20034;-92
2022/03/13 00:37:05;;;;;;;4.72;2.97;;;;;;;;;;4994132;28;20089;-91
2022/03/13 00:39:31;;;;;;;6.55;2.90;;;;;;;;;;4994208;28;20026;-91
2022/03/13 00:41:57;;;;;;;4.93;3.08;;;;;;;;;;4992167;28;20092;-89
2022/03/13 00:44:23;;;;;;;4.30;2.80;;;;;;;;;;4992479;28;20401;-89
2022/03/13 00:46:50;;;;;;;6.13;2.90;;;;;;;;;;4993685;28;20498;-90
2022/03/13 00:49:17;;;;;;;5.97;2.83;;;;;;;;;;4993299;28;20026;-92
2022/03/13 00:51:44;;;;;;;6.95;3.03;;;;;;;;;;4994498;28;20130;-91
2022/03/13 00:54:10;;;;;;;3.70;2.53;;;;;;;;;;4992619;28;20034;-93
2022/03/13 00:56:36;;;;;;;4.88;2.70;;;;;;;;;;4992503;28;20018;-94
2022/03/13 00:59:02;;;;;;;9.75;3.13;;;;;;;;;;4993705;28;20034;-94
2022/03/13 01:01:28;;;;;;;4.70;2.97;;;;;;;;;;4993118;28;20461;-93
2022/03/13 01:03:54;;;;;;;4.60;2.55;;;;;;;;;;4993869;28;20026;-94
2022/03/13 01:06:21;;;;;;;5.88;2.83;;;;;;;;;;4992825;28;20029;-92
2022/03/13 01:08:48;;;;;;;5.63;3.00;;;;;;;;;;4988261;28;20570;-93
2022/03/13 01:11:16;;;;;;;4.22;2.78;;;;;;;;;;4973612;28;20550;-94
2022/03/13 01:13:42;;;;;;;4.60;2.65;;;;;;;;;;4973358;28;20047;-93
2022/03/13 01:16:17;;;;;;;5.13;3.08;;;;;;;;;;4977110;28;20319;-91
2022/03/13 01:18:44;;;;;;;5.10;2.80;;;;;;;;;;4972962;28;20058;-91
2022/03/13 01:21:11;;;;;;;4.27;2.50;;;;;;;;;;4974259;28;20122;-92
2022/03/13 01:23:38;;;;;;;3.78;3.00;;;;;;;;;;4972730;28;20031;-91
2022/03/13 01:26:22;;;;;;;4.03;2.67;;;;;;;;;;4973747;28;20038;-93
2022/03/13 01:28:56;;;;;;;3.38;2.50;;;;;;;;;;4973562;28;20019;-89
2022/03/13 01:31:24;;;;;;;8.77;2.40;;;;;;;;;;4980727;28;20026;-91
2022/03/13 01:33:50;;;;;;;7.28;2.15;;;;;;;;;;4991598;28;20046;-90
2022/03/13 01:36:16;;;;;;;3.65;2.05;;;;;;;;;;4992620;28;20051;-91
2022/03/13 01:38:42;;;;;;;3.72;2.03;;;;;;;;;;4992927;28;20030;-92
2022/03/13 01:41:09;;;;;;;5.10;2.00;;;;;;;;;;4992082;28;20026;-91
2022/03/13 01:43:35;;;;;;;5.10;2.10;;;;;;;;;;4991428;28;20030;-92
2022/03/13 01:46:05;;;;;;;7.20;2.50;;;;;;;;;;4973522;28;20113;-94
2022/03/13 01:48:38;;;;;;;7.43;2.38;;;;;;;;;;4976642;28;20613;-90
2022/03/13 01:51:05;;;;;;;5.05;2.10;;;;;;;;;;4991594;28;20030;-94
2022/03/13 01:53:32;;;;;;;4.70;2.13;;;;;;;;;;4991912;28;20042;-92
2022/03/13 01:55:58;;;;;;;9.52;2.28;;;;;;;;;;4993037;28;20073;-92
2022/03/13 01:58:25;;;;;;;5.60;2.38;;;;;;;;;;4991901;28;20113;-92
2022/03/13 02:00:51;;;;;;;5.30;2.10;;;;;;;;;;4991829;28;20027;-93
2022/03/13 02:03:17;;;;;;;6.80;2.28;;;;;;;;;;4992461;28;20042;-92
2022/03/13 02:05:44;;;;;;;11.20;2.28;;;;;;;;;;4991739;28;20027;-92
2022/03/13 02:08:14;;;;;;;8.15;2.28;;;;;;;;;;4991987;28;20338;-92
2022/03/13 02:10:40;;;;;;;5.43;2.03;;;;;;;;;;4991042;28;20239;-91
2022/03/13 02:13:07;;;;;;;7.80;2.15;;;;;;;;;;4991393;28;20054;-92
2022/03/13 02:15:34;;;;;;;5.97;2.05;;;;;;;;;;4990063;28;20033;-92
2022/03/13 02:18:02;;;;;;;6.28;2.10;;;;;;;;;;4971620;28;20057;-92
2022/03/13 02:20:28;;;;;;;6.13;2.15;;;;;;;;;;4974463;28;20023;-93
2022/03/13 02:23:20;;;;;;;3.88;1.85;;;;;;;;;;4991083;28;20034;-94
2022/03/13 02:25:51;;;;;;;6.05;1.75;;;;;;;;;;4989407;28;20104;-93
2022/03/13 02:28:21;;;;;;;6.90;2.15;;;;;;;;;;4990978;28;20138;-92
2022/03/13 02:30:47;;;;;;;6.05;1.70;;;;;;;;;;4992517;28;20482;-91
2022/03/13 02:33:17;;;;;;;5.15;1.83;;;;;;;;;;4991784;28;20509;-93
2022/03/13 02:35:43;;;;;;;5.90;1.92;;;;;;;;;;4992971;28;20397;-91
2022/03/13 02:38:09;;;;;;;7.03;1.90;;;;;;;;;;4995297;28;20035;-91
2022/03/13 02:40:35;;;;;;;7.55;2.08;;;;;;;;;;4991177;28;20023;-92
2022/03/13 02:43:04;;;;;;;9.57;1.95;;;;;;;;;;4991688;28;20030;-92
2022/03/13 02:45:32;;;;;;;7.47;2.05;;;;;;;;;;4990952;28;20026;-92
2022/03/13 02:47:59;;;;;;;6.63;1.60;;;;;;;;;;4971511;28;20483;-92
2022/03/13 02:50:30;;;;;;;8.48;1.90;;;;;;;;;;4987589;28;20026;-94
2022/03/13 02:52:56;;;;;;;7.38;1.83;;;;;;;;;;4990732;28;20031;-92
2022/03/13 02:55:30;;;;;;;3.15;1.45;;;;;;;;;;4991445;28;20112;-93
2022/03/13 02:57:56;;;;;;;5.10;1.33;;;;;;;;;;4990504;28;20029;-92
2022/03/13 03:00:54;;;;;;;5.22;1.60;;;;;;;;;;4983502;28;20031;-93
2022/03/13 03:03:21;;;;;;;4.90;1.40;;;;;;;;;;4981399;28;20498;-92
2022/03/13 03:05:48;;;;;;;5.88;1.83;;;;;;;;;;4990584;28;20023;-91
2022/03/13 03:08:14;;;;;;;3.50;1.63;;;;;;;;;;4991818;28;20030;-92
2022/03/13 03:10:42;;;;;;;6.63;1.98;;;;;;;;;;4990735;28;20030;-91
2022/03/13 03:13:09;;;;;;;5.10;1.73;;;;;;;;;;4991596;28;20034;-91
2022/03/13 03:15:35;;;;;;;4.85;1.67;;;;;;;;;;4990469;28;20513;-92
2022/03/13 03:18:09;;;;;;;5.95;2.00;;;;;;;;;;4990170;28;20038;-91
2022/03/13 03:20:35;;;;;;;8.65;1.80;;;;;;;;;;4990388;28;20019;-92
2022/03/13 03:23:02;;;;;;;8.63;1.80;;;;;;;;;;4989944;28;20396;-93
2022/03/13 03:25:30;;;;;;;8.60;2.00;;;;;;;;;;4990303;28;20022;-92
2022/03/13 03:27:56;;;;;;;;;;;;;;;;;;4990765;28;20026;-94
2022/03/13 03:30:24;;;;;;;9.70;2.10;;;;;;;;;;4992176;28;19906;-92
2022/03/13 03:32:51;;;;;;;7.68;1.80;;;;;;;;;;4990397;28;20380;-92
2022/03/13 03:35:19;;;;;;;5.00;2.03;;;;;;;;;;4991298;28;20026;-92
2022/03/13 03:37:48;;;;;;;10.32;2.10;;;;;;;;;;4991066;28;20019;-93
2022/03/13 03:40:14;;;;;;;11.95;1.90;;;;;;;;;;4989164;28;20034;-89
2022/03/13 03:42:40;;;;;;;9.80;2.30;;;;;;;;;;4991071;28;20430;-93
2022/03/13 03:45:07;;;;;;;7.82;1.80;;;;;;;;;;4987831;28;20117;-91
2022/03/13 03:47:33;;;;;;;10.65;2.20;;;;;;;;;;4989093;28;20033;-92
2022/03/13 03:50:00;;;;;;;8.38;2.97;;;;;;;;;;4990059;28;20026;-92
2022/03/13 03:52:26;;;;;;;16.00;2.20;;;;;;;;;;4990674;28;20025;-90
2022/03/13 03:54:52;;;;;;;9.85;2.25;;;;;;;;;;4990650;28;20070;-92
2022/03/13 03:57:19;;;;;;;8.55;2.10;;;;;;;;;;4991080;28;20022;-95
2022/03/13 03:59:45;;;;;;;6.57;2.03;;;;;;;;;;4989682;28;20030;-92
2022/03/13 04:02:11;;;;;;;11.30;3.35;;;;;;;;;;4991137;28;20018;-93
2022/03/13 04:04:37;;;;;;;11.20;2.75;;;;;;;;;;4989913;28;20053;-92
2022/03/13 04:07:03;;;;;;;11.18;2.17;;;;;;;;;;4990025;28;20030;-92
2022/03/13 04:09:32;;;;;;;17.13;2.78;;;;;;;;;;4991046;28;20031;-91
2022/03/13 04:12:18;;;;;;;;;;;;;;;;;;;;;
2022/03/13 04:14:52;;;;;;;9.52;2.40;;;;;;;;;;4971586;28;20043;-92
2022/03/13 04:17:23;;;;;;;9.95;2.60;;;;;;;;;;4970924;28;20080;-92
2022/03/13 04:19:51;;;;;;;13.25;2.67;;;;;;;;;;4970443;28;20027;-92
2022/03/13 04:22:17;;;;;;;13.23;2.83;;;;;;;;;;4970545;28;20031;-92
2022/03/13 04:24:43;;;;;;;11.25;2.80;;;;;;;;;;4970184;28;20525;-92
2022/03/13 04:27:10;;;;;;;11.32;2.47;;;;;;;;;;4970241;28;20087;-92
2022/03/13 04:29:37;;;;;;;9.93;2.72;;;;;;;;;;4971281;28;20382;-92
2022/03/13 04:32:05;;;;;;;11.52;2.80;;;;;;;;;;4970208;28;20041;-94
2022/03/13 04:34:34;;;;;;;7.53;2.38;;;;;;;;;;4970425;28;20051;-94
2022/03/13 04:37:00;;;;;;;8.40;2.40;;;;;;;;;;4970236;28;20027;-92
2022/03/13 04:39:27;;;;;;;9.93;2.88;;;;;;;;;;4970750;28;20034;-91
2022/03/13 04:41:54;;;;;;;13.57;2.65;;;;;;;;;;4987343;28;20058;-93
2022/03/13 04:44:21;;;;;;;8.25;3.20;;;;;;;;;;4989661;28;20030;-93
2022/03/13 04:46:47;;;;;;;11.45;2.95;;;;;;;;;;4989615;28;20446;-92
2022/03/13 04:49:13;;;;;;;12.77;2.75;;;;;;;;;;4989852;28;20054;-92
2022/03/13 04:51:40;;;;;;;10.27;3.13;;;;;;;;;;4989791;28;20026;-92
2022/03/13 04:54:08;;;;;;;8.27;2.80;;;;;;;;;;4993075;28;20030;-92
2022/03/13 04:56:35;;;;;;;11.65;3.33;;;;;;;;;;4992784;28;20521;-91
2022/03/13 04:59:01;;;;;;;10.48;3.00;;;;;;;;;;4992129;28;20085;-90
2022/03/13 05:01:28;;;;;;;6.88;2.67;;;;;;;;;;4982356;28;20035;-90
2022/03/13 05:03:54;;;;;;;8.70;3.28;;;;;;;;;;4973403;28;20104;-92
2022/03/13 05:06:20;;;;;;;14.23;3.20;;;;;;;;;;4973172;28;20026;-93
2022/03/13 05:08:49;;;;;;;11.40;3.13;;;;;;;;;;4972878;28;20023;-91
2022/03/13 05:11:17;;;;;;;11.95;3.47;;;;;;;;;;4972838;28;20031;-92
2022/03/13 05:13:44;;;;;;;7.63;3.22;;;;;;;;;;4973044;28;20034;-91
2022/03/13 05:16:10;;;;;;;13.40;3.58;;;;;;;;;;4973139;28;20042;-90
2022/03/13 05:18:36;;;;;;;10.35;3.90;;;;;;;;;;4973994;28;20026;-90
2022/03/13 05:21:02;;;;;;;9.60;2.92;;;;;;;;;;4991916;28;20027;-90
2022/03/13 05:23:29;;;;;;;9.07;3.22;;;;;;;;;;4992431;28;20022;-91
2022/03/13 05:25:55;;;;;;;12.48;4.25;;;;;;;;;;4992343;28;20035;-91
2022/03/13 05:28:21;;;;;;;9.40;3.60;;;;;;;;;;4992043;28;20122;-90
2022/03/13 05:30:47;;;;;;;16.52;3.50;;;;;;;;;;4992027;28;20026;-90
2022/03/13 05:33:13;;;;;;;9.60;3.30;;;;;;;;;;4993062;28;20041;-92
2022/03/13 05:35:39;;;;;;;18.63;3.35;;;;;;;;;;4991976;28;20030;-92
2022/03/13 05:38:06;;;;;;;11.25;4.35;;;;;;;;;;4991808;28;20033;-91
2022/03/13 05:40:34;;;;;;;14.07;3.78;;;;;;;;;;4986534;28;20022;-90
2022/03/13 05:43:01;;;;;;;;;;;;;;;;;;4973643;28;20019;-93
2022/03/13 05:45:28;;;;;;;12.82;3.75;;;;;;;;;;4972680;28;19914;-91
2022/03/13 05:48:02;;;;;;;11.65;3.50;;;;;;;;;;4973130;28;20027;-92
2022/03/13 05:50:29;;;;;;;23.90;3.92;;;;;;;;;;4972827;28;20066;-92
2022/03/13 05:52:59;;;;;;;15.50;4.40;;;;;;;;;;4973654;28;20035;-92
2022/03/13 05:55:28;;;;;;;11.13;3.33;;;;;;;;;;4972396;28;20049;-92
2022/03/13 05:57:55;;;;;;;10.27;3.75;;;;;;;;;;4973357;28;20023;-93
2022/03/13 06:00:22;;;;;;;13.48;3.38;;;;;;;;;;4972193;28;20034;-91
2022/03/13 06:02:48;;;;;;;16.35;3.38;;;;;;;;;;4971923;28;20018;-93
2022/03/13 06:05:17;;;;;;;15.52;3.45;;;;;;;;;;4972134;28;20035;-93
2022/03/13 06:07:43;;;;;;;;;;;;;;;;;;4972694;28;20046;-93
2022/03/13 06:10:09;;;;;;;12.90;3.47;;;;;;;;;;4972006;28;20255;-91
2022/03/13 06:12:36;;;;;;;11.82;3.03;;;;;;;;;;4971982;28;20031;-92
2022/03/13 06:15:03;;;;;;;8.05;3.40;;;;;;;;;;4972760;28;20039;-91
2022/03/13 06:17:29;;;;;;;14.98;3.40;;;;;;;;;;4972440;28;20544;-92
2022/03/13 06:19:56;;;;;;;11.38;3.50;;;;;;;;;;4972335;28;20034;-92
2022/03/13 06:22:25;;;;;;;14.77;3.67;;;;;;;;;;4976073;28;20035;-91
2022/03/13 06:34:11;;;;;;;13.23;2.78;;;;;;;;;;4832579;29;20399;-88
2022/03/13 06:36:39;;;;;;;7.75;2.70;;;;;;;;;;4916750;29;20118;-90
2022/03/13 06:39:05;;;;;;;12.40;3.13;;;;;;;;;;4952015;28;20450;-85
2022/03/13 06:41:31;;;;;;;8.23;2.13;;;;;;;;;;4989204;28;20018;-90
2022/03/13 08:00:10;;;;;;;11.82;2.40;;;;;;;;;;6014029;23;20384;-93
2022/03/13 09:20:21;;;;;;;9.17;2.73;;;;;;;;;;5600202;22;15092713;-92
2022/03/13 09:22:47;;;;;;;15.18;2.88;;;;;;;;;;6226170;23;20524;-93
2022/03/13 09:25:13;;;;;;;9.15;2.63;;;;;;;;;;6221562;23;20457;-94
2022/03/13 09:27:40;;;;;;;9.90;2.80;;;;;;;;;;6221451;23;20067;-92
2022/03/13 09:30:06;;;;;;;11.73;2.55;;;;;;;;;;6239512;23;20012;-91
2022/03/13 09:32:35;;;;;;;11.57;2.40;;;;;;;;;;6239307;23;20001;-91
2022/03/13 09:35:01;;;;;;;;;;;;;;;;;;6220227;23;20004;-95
2022/03/13 09:37:27;;;;;;;8.23;2.17;;;;;;;;;;6229630;23;19884;-93
2022/03/13 09:39:53;;;;;;;7.72;2.20;;;;;;;;;;6249282;23;20484;-94
2022/03/13 09:42:19;;;;;;;14.25;2.70;;;;;;;;;;6226296;23;20056;-93
2022/03/13 09:44:45;;;;;;;11.38;2.58;;;;;;;;;;6221175;23;20055;-94
2022/03/13 09:47:12;;;;;;;12.57;3.25;;;;;;;;;;6243652;23;20051;-90
2022/03/13 09:49:44;;;;;;;9.45;2.97;;;;;;;;;;6242563;23;20074;-95
2022/03/13 09:52:10;;;;;;;14.18;3.05;;;;;;;;;;6219224;23;19997;-95
2022/03/13 09:54:39;;;;;;;9.18;2.63;;;;;;;;;;6243002;23;20013;-91
2022/03/13 09:57:05;;;;;;;14.70;2.55;;;;;;;;;;6218368;23;19996;-92
2022/03/13 09:59:32;;;;;;;13.25;2.85;;;;;;;;;;6218889;23;20102;-93
2022/03/13 10:02:04;;;;;;;10.88;2.97;;;;;;;;;;6245723;23;20326;-93
2022/03/13 10:04:31;;;;;;;13.07;4.03;;;;;;;;;;6221283;23;20032;-92
2022/03/13 10:07:05;;;;;;;12.40;3.50;;;;;;;;;;6244813;23;20437;-91
2022/03/13 10:09:32;;;;;;;14.70;3.80;;;;;;;;;;6264132;22;20023;-94
2022/03/13 10:12:06;;;;;;;10.55;2.75;;;;;;;;;;6271119;22;20008;-91
2022/03/13 10:14:38;;;;;;;14.98;3.08;;;;;;;;;;6225286;23;20020;-93
2022/03/13 10:17:05;;;;;;;12.13;3.40;;;;;;;;;;6244430;23;20004;-89
2022/03/13 10:19:31;;;;;;;9.07;3.00;;;;;;;;;;6241570;23;20684;-93
2022/03/13 10:22:36;;;;;;;15.38;2.90;;;;;;;;;;6243155;23;20000;-92
2022/03/13 10:28:45;;;;;;;;;;;;;;;;;;;;;
2022/03/13 10:32:00;;;;;;;10.38;2.97;;;;;;;;;;6034887;23;20078;-91
2022/03/13 10:37:54;;;;;;;;;;;;;;;;;;;;;
2022/03/13 10:43:39;;;;;;;;;;;;;;;;;;;;;
2022/03/13 10:46:12;;;;;;;;;;;;;;;;;;6064528;23;20089;-94
2022/03/13 10:48:46;;;;;;;22.13;4.18;;;;;;;;;;6042390;23;19969;-92
2022/03/13 10:51:15;;;;;;;19.90;3.70;;;;;;;;;;6075136;23;20369;-91
2022/03/13 10:54:00;;;;;;;;;;;;;;;;;;;;;
2022/03/13 10:56:30;;;;;;;19.35;3.25;;;;;;;;;;6211622;23;20052;-93
2022/03/13 10:58:58;;;;;;;22.40;3.50;;;;;;;;;;6234924;23;20084;-91
2022/03/13 11:01:25;;;;;;;21.08;3.58;;;;;;;;;;6211483;23;20009;-91
2022/03/13 11:04:02;;;;;;;20.23;3.65;;;;;;;;;;6212104;23;20001;-93
2022/03/13 11:06:31;;;;;;;16.98;3.67;;;;;;;;;;6212826;23;20005;-92
2022/03/13 11:08:58;;;;;;;23.48;3.53;;;;;;;;;;6213299;23;20087;-95
2022/03/13 11:11:27;;;;;;;23.10;3.67;;;;;;;;;;6214062;23;20011;-93
2022/03/13 11:13:57;;;;;;;25.90;4.13;;;;;;;;;;6239843;23;20004;-95
2022/03/13 11:16:35;;;;;;;36.53;5.57;;;;;;;;;;6240537;23;20438;-92
2022/03/13 11:19:05;;;;;;;40.90;6.10;;;;;;;;;;6235705;23;20184;-90
2022/03/13 11:21:34;;;;;;;31.08;3.95;;;;;;;;;;6211980;23;20525;-91
2022/03/13 11:24:03;;;;;;;24.95;4.18;;;;;;;;;;6212096;23;20009;-92
2022/03/13 11:26:30;;;;;;;20.80;3.42;;;;;;;;;;6235891;23;20005;-91
2022/03/13 11:28:58;;;;;;;19.88;3.20;;;;;;;;;;6237408;23;20020;-94
2022/03/13 11:31:33;;;;;;;19.63;3.40;;;;;;;;;;6241108;23;20004;-93
2022/03/13 11:34:16;;;;;;;24.35;3.60;;;;;;;;;;6218101;23;20075;-93
2022/03/13 11:36:52;;;;;;;32.08;5.35;;;;;;;;;;6214840;23;20063;-91
2022/03/13 11:39:27;;;;;;;26.92;3.83;;;;;;;;;;6213570;23;19997;-90
2022/03/13 11:41:54;;;;;;;24.35;3.78;;;;;;;;;;6217888;23;20035;-93
2022/03/13 11:44:23;;;;;;;26.25;4.00;;;;;;;;;;6213775;23;20001;-94
2022/03/13 11:46:56;;;;;;;31.67;3.95;;;;;;;;;;6213892;23;20000;-92
2022/03/13 11:49:31;;;;;;;25.83;3.70;;;;;;;;;;6212587;23;20012;-92
2022/03/13 11:52:13;;;;;;;23.67;3.42;;;;;;;;;;6213555;23;20005;-93
2022/03/13 11:54:55;;;;;;;26.55;3.20;;;;;;;;;;6213904;23;20001;-92
2022/03/13 11:57:22;;;;;;;19.77;3.35;;;;;;;;;;6213581;23;20341;-93
2022/03/13 12:00:07;;;;;;;21.15;3.22;;;;;;;;;;6236938;23;20012;-93
2022/03/13 12:02:51;;;;;;;19.98;3.30;;;;;;;;;;6215918;23;20001;-93
2022/03/13 12:05:26;;;;;;;22.20;2.92;;;;;;;;;;6215622;23;20088;-92
2022/03/13 12:07:56;;;;;;;19.98;3.17;;;;;;;;;;6213725;23;20031;-91
2022/03/13 12:10:34;;;;;;;16.73;3.05;;;;;;;;;;6212673;23;20005;-93
2022/03/13 12:13:08;;;;;;;25.58;3.83;;;;;;;;;;6236549;23;20027;-93
2022/03/13 12:15:35;;;;;;;25.23;3.55;;;;;;;;;;6212774;23;20004;-92
2022/03/13 12:18:15;;;;;;;24.90;3.90;;;;;;;;;;6217438;23;20032;-93
2022/03/13 12:20:43;;;;;;;24.55;3.47;;;;;;;;;;6238806;23;20060;-93
2022/03/13 12:23:09;;;;;;;;;;;;;;;;;;6216350;23;20004;-93
2022/03/13 12:25:36;;;;;;;23.38;3.53;;;;;;;;;;6217354;23;20389;-94
2022/03/13 12:28:02;;;;;;;17.52;2.95;;;;;;;;;;6216714;23;20071;-89
2022/03/13 12:30:34;;;;;;;17.80;3.42;;;;;;;;;;6216963;23;20005;-91
2022/03/13 12:33:01;;;;;;;22.58;3.63;;;;;;;;;;6245239;23;20060;-94
2022/03/13 12:35:28;;;;;;;14.98;3.25;;;;;;;;;;6221443;23;20009;-94
2022/03/13 12:38:02;;;;;;;22.15;3.38;;;;;;;;;;6217397;23;20318;-92
2022/03/13 12:40:30;;;;;;;24.15;3.33;;;;;;;;;;6238030;23;20008;-93
2022/03/13 12:43:04;;;;;;;20.33;3.40;;;;;;;;;;6214938;23;20015;-92
2022/03/13 12:45:30;;;;;;;22.73;3.30;;;;;;;;;;6237622;23;20032;-93
2022/03/13 12:48:00;;;;;;;15.45;3.10;;;;;;;;;;6249703;23;20027;-94
2022/03/13 12:50:29;;;;;;;19.92;3.08;;;;;;;;;;6249304;23;20007;-94
2022/03/13 12:52:59;;;;;;;19.40;3.22;;;;;;;;;;6256591;22;20009;-93
2022/03/13 12:55:31;;;;;;;16.15;3.08;;;;;;;;;;6226297;23;19996;-91
2022/03/13 12:58:19;;;;;;;19.75;3.25;;;;;;;;;;6241029;23;20032;-92
2022/03/13 13:01:17;;;;;;;19.70;3.03;;;;;;;;;;6240102;23;19993;-95
2022/03/13 13:03:55;;;;;;;16.85;2.42;;;;;;;;;;6226524;23;20468;-95
2022/03/13 13:06:31;;;;;;;13.40;3.05;;;;;;;;;;6214610;23;20058;-89
2022/03/13 13:08:58;;;;;;;20.30;3.42;;;;;;;;;;6234958;23;20095;-92
2022/03/13 13:11:31;;;;;;;17.60;3.30;;;;;;;;;;6212534;23;20001;-90
2022/03/13 13:13:58;;;;;;;13.95;2.80;;;;;;;;;;6234521;23;20011;-91
2022/03/13 13:16:24;;;;;;;16.55;3.28;;;;;;;;;;6210087;23;20056;-90
2022/03/13 13:18:58;;;;;;;19.58;3.10;;;;;;;;;;6246467;23;20009;-93
2022/03/13 13:24:39;;;;;;;15.82;2.60;;;;;;;;;;6120439;23;20069;-90
2022/03/13 13:27:21;;;;;;;;;;;;;;;;;;;;;
2022/03/13 13:57:39;;;;;;;12.77;2.15;;;;;;;;;;5799678;24;20012;-94
2022/03/13 14:00:35;;;;;;;;;;;;;;;;;;;;;
2022/03/13 14:06:56;;;;;;;;;;;;;;;;;;;;;
2022/03/13 14:15:57;;;;;;;7.45;1.33;;;;;;;;;;5922073;24;20044;-94
2022/03/13 14:27:38;;;;;;;4.18;0.90;;;;;;;;;;5869844;24;20010;-93
2022/03/13 14:40:08;;;;;;;;;;;;;;;;;;;;;
2022/03/13 14:42:40;;;;;;;4.78;1.23;;;;;;;;;;6086200;23;20092;-92
2022/03/13 14:49:00;;;;;;;;;;;;;;;;;;;;;
2022/03/13 14:55:14;;;;;;;;;;;;;;;;;;;;;
2022/03/13 14:58:03;;;;;;;4.00;1.08;;;;;;;;;;6089734;23;20092;-92
2022/03/13 15:00:59;;;;;;;2.80;1.52;;;;;;;;;;6051871;23;20470;-93
2022/03/13 15:03:48;;;;;;;6.72;1.23;;;;;;;;;;6056696;23;20395;-91
2022/03/13 15:06:34;;;;;;;2.08;1.05;;;;;;;;;;6024178;23;20035;-95
2022/03/13 15:19:21;;;;;;;3.38;1.10;;;;;;;;;;6008277;23;20030;-94
2022/03/13 15:28:44;;;;;;;2.72;0.90;;;;;;;;;;5883625;24;20019;-91
2022/03/13 15:32:00;;;;;;;;;;;;;;;;;;;;;
2022/03/13 15:34:22;;;;;;;4.05;1.17;;;;;;;;;;6125419;23;20087;-91
2022/03/13 15:43:34;;;;;;;5.75;1.10;;;;;;;;;;6109548;23;20007;-91
2022/03/13 15:52:34;;;;;;;3.00;1.05;;;;;;;;;;5964571;24;20009;-94
2022/03/13 15:58:04;;;;;;;9.98;2.20;;;;;;;;;;5913105;24;20132;-90
2022/03/13 16:01:21;;;;;;;;;;;;;;;;;;;;;
2022/03/13 16:04:10;;;;;;;4.35;1.55;;;;;;;;;;5943793;23;20015;-89
2022/03/13 16:06:53;;;;;;;2.40;1.20;;;;;;;;;;5978487;23;20008;-94
2022/03/13 16:09:22;;;;;;;4.43;1.13;;;;;;;;;;6006603;23;20020;-94
2022/03/13 16:12:12;;;;;;;3.05;1.20;;;;;;;;;;5970467;24;19993;-93
2022/03/13 16:18:12;;;;;;;4.63;2.08;;;;;;;;;;5841716;24;20007;-94
2022/03/13 16:20:43;;;;;;;5.47;1.65;;;;;;;;;;5930527;24;20028;-93
2022/03/13 16:23:42;;;;;;;4.90;1.58;;;;;;;;;;6005369;23;20505;-92
2022/03/13 16:26:39;;;;;;;4.00;1.60;;;;;;;;;;6164441;23;20001;-90
2022/03/13 16:29:06;;;;;;;3.75;1.48;;;;;;;;;;6180590;23;20025;-94
2022/03/13 16:32:05;;;;;;;4.72;1.40;;;;;;;;;;6182488;23;20072;-93
2022/03/13 16:34:31;;;;;;;4.38;1.70;;;;;;;;;;6160154;23;20087;-92
2022/03/13 16:37:11;;;;;;;7.75;1.60;;;;;;;;;;6179045;23;20016;-92
2022/03/13 16:45:30;;;;;;;2.30;1.30;;;;;;;;;;6173983;23;19998;-93
2022/03/13 16:48:13;;;;;;;;;;;;;;;;;;;;;
2022/03/13 16:50:51;;;;;;;3.55;1.70;;;;;;;;;;6164736;23;20005;-92
2022/03/13 17:06:31;;;;;;;7.63;2.30;;;;;;;;;;6009314;23;20036;-91
2022/03/13 17:09:19;;;;;;;12.50;3.40;;;;;;;;;;6092381;23;20034;-92
2022/03/13 17:11:52;;;;;;;10.73;2.85;;;;;;;;;;6093590;23;20018;-90
2022/03/13 17:15:07;;;;;;;;;;;;;;;;;;;;;
2022/03/13 17:17:33;;;;;;;8.18;1.73;;;;;;;;;;6159323;23;20052;-88
2022/03/13 17:20:04;;;;;;;9.82;2.17;;;;;;;;;;6137406;23;20493;-88
2022/03/13 17:22:43;;;;;;;6.53;2.22;;;;;;;;;;6171452;23;20004;-89
2022/03/13 17:25:15;;;;;;;;;;;;;;;;;;6148340;23;20009;-89
2022/03/13 17:28:16;;;;;;;7.60;2.42;;;;;;;;;;6092077;23;19889;-91
2022/03/13 17:31:06;;;;;;;9.00;2.75;;;;;;;;;;6153632;23;20020;-92
2022/03/13 17:37:08;;;;;;;5.78;2.20;;;;;;;;;;6170269;23;20044;-93
2022/03/13 17:46:47;;;;;;;;;;;;;;;;;;;;;
2022/03/13 18:02:13;;;;;;;;;;;;;;;;;;;;;
2022/03/13 19:31:53;;;;;;;19.25;8.95;;;;;;;;;;6304372;22;20023;-94
2022/03/13 19:37:56;;;;;;;;;;;;;;;;;;;;;
2022/03/13 19:40:22;;;;;;;21.40;8.30;;;;;;;;;;6121566;23;20073;-90
2022/03/13 19:42:53;;;;;;;23.15;11.60;;;;;;;;;;6264459;22;20038;-90
2022/03/13 19:45:19;;;;;;;22.08;9.68;;;;;;;;;;6278345;22;20435;-91
2022/03/13 19:47:49;;;;;;;18.80;9.45;;;;;;;;;;6278302;22;20451;-90
2022/03/13 19:50:26;;;;;;;;;;;;;;;;;;;;;
2022/03/13 19:53:14;;;;;;;22.15;10.48;;;;;;;;;;6304510;22;20491;-93
2022/03/13 19:58:45;;;;;;;27.63;11.48;;;;;;;;;;6302690;22;20447;-92
2022/03/13 20:01:14;;;;;;;26.52;10.85;;;;;;;;;;6303922;22;20010;-91
2022/03/13 20:03:53;;;;;;;;;;;;;;;;;;;;;
2022/03/13 20:06:47;;;;;;;18.45;7.93;;;;;;;;;;6304740;22;20086;-91
2022/03/13 20:12:12;;;;;;;24.60;10.00;;;;;;;;;;6241623;22;20068;-91
2022/03/13 20:14:49;;;;;;;;;;;;;;;;;;;;;
2022/03/13 20:17:42;;;;;;;;;;;;;;;;;;;;;
2022/03/13 20:20:10;;;;;;;22.05;9.88;;;;;;;;;;6303884;22;20074;-93
2022/03/13 20:22:53;;;;;;;26.52;10.63;;;;;;;;;;6277127;22;20012;-92
2022/03/13 20:25:19;;;;;;;35.28;10.32;;;;;;;;;;6277653;22;20003;-92
2022/03/13 20:27:45;;;;;;;19.27;7.93;;;;;;;;;;6277107;22;20003;-91
2022/03/13 20:30:11;;;;;;;26.00;8.10;;;;;;;;;;6303352;22;20144;-91
2022/03/13 20:32:42;;;;;;;30.15;8.43;;;;;;;;;;6275755;22;20011;-91
2022/03/13 20:35:17;;;;;;;25.00;7.90;;;;;;;;;;6274932;22;20102;-91
2022/03/13 20:37:44;;;;;;;28.88;7.97;;;;;;;;;;6275703;22;20038;-90
2022/03/13 20:40:15;;;;;;;27.60;7.97;;;;;;;;;;6274444;22;20318;-91
2022/03/13 20:46:23;;;;;;;23.33;6.22;;;;;;;;;;6182835;23;20482;-90
2022/03/13 20:48:58;;;;;;;21.33;6.18;;;;;;;;;;6174318;23;20020;-95
2022/03/13 20:51:26;;;;;;;28.08;6.40;;;;;;;;;;6295334;22;20003;-90
2022/03/13 20:54:13;;;;;;;28.30;6.65;;;;;;;;;;6308114;22;20003;-92
2022/03/13 20:57:09;;;;;;;23.92;6.07;;;;;;;;;;6278592;22;20109;-90
2022/03/13 21:00:22;;;;;;;;;;;;;;;;;;;;;
2022/03/13 21:02:43;;;;;;;25.60;6.20;;;;;;;;;;6295166;22;20066;-89
2022/03/13 21:08:08;;;;;;;23.05;5.82;;;;;;;;;;6179642;23;20091;-90
2022/03/13 21:11:00;;;;;;;30.65;5.95;;;;;;;;;;6155725;23;20005;-91
2022/03/13 21:16:42;;;;;;;22.83;6.53;;;;;;;;;;6284593;22;20015;-93
2022/03/13 21:19:27;;;;;;;18.60;5.88;;;;;;;;;;6277928;22;20037;-91
2022/03/13 21:22:42;;;;;;;;;;;;;;;;;;;;;
2022/03/13 21:25:15;;;;;;;;;;;;;;;;;;;;;
2022/03/13 21:31:10;;;;;;;25.15;7.45;;;;;;;;;;6284945;22;20019;-92
2022/03/13 21:33:36;;;;;;;;;;;;;;;;;;6279657;22;19999;-93
2022/03/13 21:39:27;;;;;;;;;;;;;;;;;;;;;
2022/03/13 21:45:04;;;;;;;31.40;10.48;;;;;;;;;;6307404;22;20030;-93
2022/03/13 21:47:32;;;;;;;32.53;10.48;;;;;;;;;;6281623;22;20431;-92
2022/03/13 21:49:59;;;;;;;34.97;14.20;;;;;;;;;;6259833;22;20447;-93
2022/03/13 21:52:58;;;;;;;;;;;;;;;;;;;;;
2022/03/13 21:55:25;;;;;;;33.58;11.95;;;;;;;;;;6300340;22;20090;-95
2022/03/13 21:58:06;;;;;;;;;;;;;;;;;;;;;
2022/03/13 22:03:42;;;;;;;30.80;11.07;;;;;;;;;;6152858;23;20009;-93
2022/03/13 22:06:21;;;;;;;;;;;;;;;;;;;;;
2022/03/13 22:15:10;;;;;;;23.17;7.85;;;;;;;;;;6221482;23;20011;-94
2022/03/13 22:20:27;;;;;;;18.52;6.32;;;;;;;;;;6213150;23;20084;-93
2022/03/13 22:25:44;;;;;;;22.58;6.93;;;;;;;;;;6283107;22;20339;-93
2022/03/13 22:28:23;;;;;;;;;;;;;;;;;;;;;
2022/03/13 22:30:49;;;;;;;26.17;5.82;;;;;;;;;;6305078;22;20090;-94
2022/03/13 22:33:33;;;;;;;18.15;6.05;;;;;;;;;;6276811;22;20371;-94
2022/03/13 22:36:27;;;;;;;27.98;8.40;;;;;;;;;;6303643;22;20344;-92
2022/03/13 22:39:09;;;;;;;30.75;11.05;;;;;;;;;;6262409;22;20010;-93
2022/03/13 22:41:43;;;;;;;30.90;10.73;;;;;;;;;;6288182;22;20003;-93
2022/03/13 22:44:22;;;;;;;27.92;10.50;;;;;;;;;;6297958;22;20007;-94
2022/03/13 22:53:31;;;;;;;36.65;11.90;;;;;;;;;;6225995;22;20046;-94
2022/03/13 22:56:17;;;;;;;20.38;6.50;;;;;;;;;;6276734;22;20355;-94
2022/03/13 23:05:33;;;;;;;28.20;11.18;;;;;;;;;;6209572;23;20012;-94
2022/03/13 23:08:18;;;;;;;40.35;15.70;;;;;;;;;;6278844;22;20064;-93
2022/03/13 23:17:18;;;;;;;;;;;;;;;;;;;;;
2022/03/13 23:35:08;;;;;;;;;;;;;;;;;;;;;
2022/03/13 23:44:11;;;;;;;30.40;9.88;;;;;;;;;;5996677;23;20057;-92
2022/03/13 23:59:33;;;;;;;;;;;;;;;;;;;;;
